createdAt,value
2022-11-07T00:03:35.159Z,3.90
2022-11-07T00:09:06.372Z,5.18
2022-11-07T00:14:37.694Z,3.67
2022-11-07T00:20:09.891Z,4.50
2022-11-07T00:25:41.353Z,4.20
2022-11-07T00:31:14.176Z,3.33
2022-11-07T00:36:45.687Z,4.57
2022-11-07T00:42:17.051Z,5.35
2022-11-07T00:47:48.077Z,6.93
2022-11-07T00:53:19.590Z,5.55
2022-11-07T00:58:57.969Z,4.38
2022-11-07T01:04:48.100Z,4.25
2022-11-07T01:10:19.444Z,4.90
2022-11-07T01:15:50.824Z,3.60
2022-11-07T01:21:22.775Z,6.00
2022-11-07T01:26:53.933Z,6.53
2022-11-07T01:32:24.878Z,6.88
2022-11-07T01:37:56.283Z,7.30
2022-11-07T01:43:42.538Z,6.40
2022-11-07T01:49:21.253Z,5.88
2022-11-07T01:55:09.137Z,5.90
2022-11-07T02:00:40.657Z,6.50
2022-11-07T02:06:19.510Z,8.13
2022-11-07T02:11:50.926Z,5.32
2022-11-07T02:17:22.245Z,5.75
2022-11-07T02:23:18.073Z,7.05
2022-11-07T02:28:49.773Z,5.70
2022-11-07T02:34:21.147Z,6.20
2022-11-07T02:39:52.216Z,5.03
2022-11-07T02:45:28.399Z,6.00
2022-11-07T02:51:00.077Z,5.55
2022-11-07T02:56:31.423Z,7.30
2022-11-07T03:02:02.597Z,5.30
2022-11-07T03:07:33.961Z,5.60
2022-11-07T03:13:04.998Z,5.63
2022-11-07T03:18:36.851Z,4.72
2022-11-07T03:24:08.237Z,5.65
2022-11-07T03:29:39.592Z,5.22
2022-11-07T03:35:11.475Z,5.68
2022-11-07T03:40:42.492Z,5.03
2022-11-07T03:46:14.815Z,5.63
2022-11-07T03:51:45.656Z,5.40
2022-11-07T03:57:16.613Z,5.72
2022-11-07T04:02:48.284Z,4.55
2022-11-07T04:08:19.625Z,5.55
2022-11-07T04:14:09.455Z,5.72
2022-11-07T04:19:40.746Z,4.78
2022-11-07T04:25:12.408Z,6.10
2022-11-07T04:30:44.216Z,4.15
2022-11-07T04:36:15.567Z,4.68
2022-11-07T04:41:46.907Z,6.45
2022-11-07T04:47:17.861Z,4.18
2022-11-07T04:52:49.033Z,4.05
2022-11-07T04:58:20.543Z,4.70
2022-11-07T05:03:51.877Z,4.72
2022-11-07T05:09:23.015Z,5.63
2022-11-07T05:14:55.004Z,5.30
2022-11-07T05:20:29.097Z,4.85
2022-11-07T05:26:00.118Z,5.63
2022-11-07T05:31:31.779Z,3.22
2022-11-07T05:37:02.888Z,4.18
2022-11-07T05:42:34.327Z,3.63
2022-11-07T05:48:07.770Z,5.32
2022-11-07T05:53:38.672Z,3.47
2022-11-07T05:59:10.485Z,4.20
2022-11-07T06:04:41.616Z,4.15
2022-11-07T06:10:12.835Z,3.35
2022-11-07T06:15:45.416Z,2.85
2022-11-07T06:21:17.241Z,3.15
2022-11-07T06:26:48.231Z,2.92
2022-11-07T06:32:19.358Z,3.28
2022-11-07T06:37:50.603Z,3.67
2022-11-07T06:43:21.827Z,3.05
2022-11-07T06:48:52.932Z,3.67
2022-11-07T06:54:24.478Z,3.70
2022-11-07T06:59:55.985Z,3.13
2022-11-07T07:05:27.615Z,2.75
2022-11-07T07:11:03.177Z,2.65
2022-11-07T07:16:34.392Z,3.38
2022-11-07T07:22:05.406Z,6.28
2022-11-07T07:27:36.355Z,3.60
2022-11-07T07:33:07.402Z,3.72
2022-11-07T07:38:39.311Z,3.92
2022-11-07T07:44:10.910Z,3.13
2022-11-07T07:49:42.426Z,3.92
2022-11-07T07:55:13.600Z,4.13
2022-11-07T08:00:45.021Z,5.20
2022-11-07T08:06:16.606Z,4.43
2022-11-07T08:11:47.913Z,4.80
2022-11-07T08:17:18.943Z,4.38
2022-11-07T08:22:50.517Z,3.80
2022-11-07T08:28:23.518Z,4.10
2022-11-07T08:33:58.803Z,3.97
2022-11-07T08:39:30.158Z,4.78
2022-11-07T08:45:01.539Z,4.57
2022-11-07T08:50:32.670Z,4.30
2022-11-07T08:56:10.540Z,4.55
2022-11-07T09:02:15.210Z,3.35
2022-11-07T09:07:32.768Z,4.15
2022-11-07T09:13:03.877Z,3.10
2022-11-07T09:18:35.027Z,4.65
2022-11-07T09:24:08.238Z,2.83
2022-11-07T09:29:40.521Z,4.40
2022-11-07T09:35:11.665Z,2.83
2022-11-07T09:40:54.466Z,3.63
2022-11-07T09:46:40.495Z,2.97
2022-11-07T09:52:36.126Z,3.95
2022-11-07T09:58:26.661Z,2.88
2022-11-07T10:04:23.574Z,2.50
2022-11-07T10:10:03.746Z,2.60
2022-11-07T10:16:07.341Z,2.90
2022-11-07T10:21:49.645Z,2.38
2022-11-07T10:27:21.406Z,3.42
2022-11-07T10:33:13.904Z,3.67
2022-11-07T10:38:45.328Z,2.40
2022-11-07T10:44:25.364Z,3.35
2022-11-07T10:50:01.351Z,3.03
2022-11-07T10:55:43.155Z,3.33
2022-11-07T11:01:14.399Z,2.30
2022-11-07T11:06:45.594Z,3.55
2022-11-07T11:12:17.282Z,3.13
2022-11-07T11:18:06.881Z,1.60
2022-11-07T11:23:42.806Z,1.83
2022-11-07T11:29:24.460Z,4.70
2022-11-07T11:35:42.126Z,1.75
2022-11-07T11:41:29.663Z,2.55
2022-11-07T11:47:29.142Z,3.70
2022-11-07T11:53:05.984Z,1.85
2022-11-07T11:59:06.076Z,2.33
2022-11-07T12:05:15.612Z,1.98
2022-11-07T12:10:46.457Z,3.08
2022-11-07T12:16:29.728Z,2.13
2022-11-07T12:22:51.970Z,3.08
2022-11-07T12:28:55.099Z,1.63
2022-11-07T12:34:55.152Z,2.25
2022-11-07T12:40:28.779Z,2.88
2022-11-07T12:46:32.444Z,3.90
2022-11-07T12:52:22.592Z,2.50
2022-11-07T12:57:55.571Z,1.98
2022-11-07T13:03:34.068Z,1.40
2022-11-07T13:09:08.743Z,4.65
2022-11-07T13:14:43.746Z,2.15
2022-11-07T13:20:20.968Z,1.75
2022-11-07T13:26:03.979Z,2.85
2022-11-07T13:31:40.770Z,1.23
2022-11-07T13:42:59.649Z,1.65
2022-11-07T13:48:42.455Z,2.92
2022-11-07T13:54:32.770Z,2.50
2022-11-07T14:00:14.516Z,4.18
2022-11-07T14:05:48.450Z,1.70
2022-11-07T14:11:22.067Z,3.65
2022-11-07T14:16:57.604Z,1.95
2022-11-07T14:22:31.635Z,2.63
2022-11-07T14:28:07.179Z,1.90
2022-11-07T14:33:38.688Z,1.58
2022-11-07T14:39:15.696Z,1.90
2022-11-07T14:44:56.234Z,2.28
2022-11-07T14:50:28.574Z,2.25
2022-11-07T14:56:04.245Z,2.28
2022-11-07T15:01:35.618Z,2.38
2022-11-07T15:07:27.953Z,2.38
2022-11-07T15:13:04.886Z,2.33
2022-11-07T15:18:41.572Z,2.00
2022-11-07T15:24:34.431Z,2.92
2022-11-07T15:30:06.587Z,1.25
2022-11-07T15:35:44.450Z,3.42
2022-11-07T15:41:16.861Z,1.75
2022-11-07T15:46:48.034Z,2.03
2022-11-07T15:52:19.133Z,2.03
2022-11-07T15:57:52.266Z,2.28
2022-11-07T16:03:25.649Z,1.98
2022-11-07T16:08:57.308Z,3.83
2022-11-07T16:14:44.789Z,2.42
2022-11-07T16:20:21.545Z,2.58
2022-11-07T16:25:52.730Z,2.85
2022-11-07T16:31:24.449Z,4.07
2022-11-07T16:36:55.845Z,2.83
2022-11-07T16:42:27.552Z,3.35
2022-11-07T16:48:02.523Z,2.85
2022-11-07T16:53:33.933Z,2.25
2022-11-07T16:59:06.727Z,3.65
2022-11-07T17:04:38.029Z,1.65
2022-11-07T17:10:14.786Z,2.08
2022-11-07T17:15:46.280Z,1.75
2022-11-07T17:21:27.520Z,1.85
2022-11-07T17:26:59.357Z,2.05
2022-11-07T17:32:30.406Z,2.53
2022-11-07T17:38:01.419Z,1.92
2022-11-07T17:43:32.405Z,2.35
2022-11-07T17:49:09.377Z,3.17
2022-11-07T17:54:40.344Z,2.00
2022-11-07T18:00:17.361Z,4.03
2022-11-07T18:05:49.491Z,3.15
2022-11-07T18:11:21.848Z,2.83
2022-11-07T18:16:52.828Z,5.47
2022-11-07T18:22:23.875Z,3.85
2022-11-07T18:27:55.069Z,3.45
2022-11-07T18:33:25.948Z,2.85
2022-11-07T18:39:05.352Z,3.20
2022-11-07T18:44:36.701Z,2.05
2022-11-07T18:50:08.154Z,2.67
2022-11-07T18:55:39.366Z,4.30
2022-11-07T19:01:16.066Z,3.70
2022-11-07T19:06:57.358Z,3.40
2022-11-07T19:12:29.832Z,3.60
2022-11-07T19:18:01.728Z,2.92
2022-11-07T19:23:36.736Z,3.35
2022-11-07T19:29:11.614Z,2.70
2022-11-07T19:34:42.822Z,4.30
2022-11-07T19:40:14.387Z,4.20
2022-11-07T19:45:45.892Z,3.10
2022-11-07T19:51:22.180Z,4.95
2022-11-07T19:56:57.418Z,5.43
2022-11-07T20:02:34.698Z,3.40
2022-11-07T20:08:07.090Z,6.72
2022-11-07T20:13:38.259Z,4.85
2022-11-07T20:19:11.626Z,3.75
2022-11-07T20:24:42.674Z,4.73
2022-11-07T20:30:14.372Z,4.50
2022-11-07T20:35:45.395Z,4.70
2022-11-07T20:41:16.791Z,4.45
2022-11-07T20:46:48.477Z,5.63
2022-11-07T20:52:19.437Z,4.85
2022-11-07T20:57:50.464Z,4.88
2022-11-07T21:03:21.556Z,5.35
2022-11-07T21:08:53.157Z,4.90
2022-11-07T21:14:24.744Z,5.28
2022-11-07T21:19:56.207Z,4.70
2022-11-07T21:25:27.602Z,4.95
2022-11-07T21:31:03.957Z,5.10
2022-11-07T21:36:35.443Z,4.90
2022-11-07T21:42:06.507Z,4.57
2022-11-07T21:47:43.227Z,4.30
2022-11-07T21:53:17.066Z,4.60
2022-11-07T21:58:50.498Z,4.25
2022-11-07T22:04:21.539Z,6.43
2022-11-07T22:09:52.764Z,4.47
2022-11-07T22:15:24.022Z,3.78
2022-11-07T22:20:58.754Z,4.03
2022-11-07T22:26:30.191Z,4.32
2022-11-07T22:32:01.622Z,4.07
2022-11-07T22:37:32.611Z,3.95
2022-11-07T22:43:04.074Z,5.07
2022-11-07T22:48:35.609Z,4.28
2022-11-07T22:54:08.850Z,3.55
2022-11-07T22:59:39.910Z,3.80
2022-11-07T23:05:11.265Z,3.45
2022-11-07T23:10:42.642Z,4.25
2022-11-07T23:16:28.537Z,5.03
2022-11-07T23:22:02.969Z,5.28
2022-11-07T23:27:34.295Z,4.50
2022-11-07T23:33:05.738Z,5.80
2022-11-07T23:38:36.804Z,6.90
2022-11-07T23:44:09.820Z,5.22
2022-11-07T23:49:59.313Z,5.25
2022-11-07T23:55:42.622Z,6.22
